createdAt,value
2022-10-21T00:03:33.600Z,5.40
2022-10-21T00:06:40.486Z,5.55
2022-10-21T00:09:32.599Z,5.43
2022-10-21T00:12:19.046Z,5.40
2022-10-21T00:18:14.570Z,5.07
2022-10-21T00:21:00.702Z,5.38
2022-10-21T00:23:46.694Z,4.80
2022-10-21T00:26:41.926Z,5.32
2022-10-21T00:29:48.127Z,6.13
2022-10-21T00:32:33.612Z,3.80
2022-10-21T00:35:18.885Z,4.50
2022-10-21T00:38:23.909Z,4.25
2022-10-21T00:41:12.786Z,4.03
2022-10-21T00:44:00.814Z,3.42
2022-10-21T00:51:14.158Z,2.67
2022-10-21T00:54:25.072Z,3.50
2022-10-21T00:57:17.495Z,3.25
2022-10-21T01:00:23.124Z,4.03
2022-10-21T01:03:10.606Z,3.70
2022-10-21T01:06:00.206Z,3.80
2022-10-21T01:09:00.912Z,3.53
2022-10-21T01:12:12.304Z,1.77
2022-10-21T01:15:29.963Z,2.42
2022-10-21T01:18:44.142Z,2.20
2022-10-21T01:21:50.452Z,2.53
2022-10-21T01:24:54.890Z,3.13
2022-10-21T01:28:15.389Z,2.70
2022-10-21T01:31:15.705Z,3.35
2022-10-21T01:34:24.237Z,3.67
2022-10-21T01:40:50.706Z,5.07
2022-10-21T01:43:43.931Z,5.45
2022-10-21T01:46:37.938Z,7.78
2022-10-21T01:49:38.093Z,7.75
2022-10-21T01:52:24.036Z,7.78
2022-10-21T01:55:15.662Z,6.68
2022-10-21T01:58:22.386Z,6.78
2022-10-21T02:01:18.502Z,7.20
2022-10-21T02:04:07.393Z,7.15
2022-10-21T02:06:53.026Z,8.50
2022-10-21T02:09:38.139Z,11.10
2022-10-21T02:12:25.964Z,11.90
2022-10-21T02:15:13.621Z,12.63
2022-10-21T02:18:18.985Z,13.90
2022-10-21T02:21:09.528Z,12.70
2022-10-21T02:24:12.868Z,12.73
2022-10-21T02:26:58.316Z,13.23
2022-10-21T02:29:54.651Z,15.35
2022-10-21T02:33:21.779Z,15.15
2022-10-21T02:36:18.365Z,16.00
2022-10-21T02:39:26.314Z,16.25
2022-10-21T02:46:05.706Z,15.98
2022-10-21T02:48:51.393Z,17.75
2022-10-21T02:51:37.125Z,17.33
2022-10-21T02:54:22.458Z,18.02
2022-10-21T02:57:07.882Z,16.83
2022-10-21T02:59:53.345Z,19.13
2022-10-21T03:03:33.489Z,18.60
2022-10-21T03:06:27.567Z,19.98
2022-10-21T03:09:43.305Z,20.60
2022-10-21T03:12:46.167Z,20.75
2022-10-21T03:15:40.524Z,21.05
2022-10-21T03:18:26.533Z,20.50
2022-10-21T03:21:19.498Z,21.02
2022-10-21T03:24:19.823Z,21.92
2022-10-21T03:27:14.175Z,21.83
2022-10-21T03:30:20.118Z,24.42
2022-10-21T03:33:07.524Z,23.40
2022-10-21T03:36:10.395Z,24.25
2022-10-21T03:39:06.750Z,23.90
2022-10-21T03:42:05.177Z,22.48
2022-10-21T03:45:39.447Z,21.02
2022-10-21T03:48:27.286Z,21.13
2022-10-21T03:51:12.789Z,21.92
2022-10-21T03:57:11.877Z,20.67
2022-10-21T03:59:57.281Z,21.88
2022-10-21T04:02:43.621Z,21.42
2022-10-21T04:05:28.770Z,21.27
2022-10-21T04:08:18.628Z,20.92
2022-10-21T04:11:04.452Z,21.30
2022-10-21T04:13:50.071Z,20.15
2022-10-21T04:16:35.899Z,22.55
2022-10-21T04:19:21.396Z,21.75
2022-10-21T04:22:10.323Z,22.77
2022-10-21T04:24:58.598Z,20.92
2022-10-21T04:27:47.466Z,20.33
2022-10-21T04:30:56.338Z,21.77
2022-10-21T04:33:41.847Z,21.67
2022-10-21T04:36:27.297Z,21.35
2022-10-21T04:39:12.879Z,20.60
2022-10-21T04:41:58.432Z,20.50
2022-10-21T04:44:43.941Z,19.27
2022-10-21T04:47:29.435Z,18.63
2022-10-21T04:50:19.577Z,18.73
2022-10-21T04:53:05.272Z,17.63
2022-10-21T04:55:54.261Z,17.95
2022-10-21T04:58:47.317Z,20.40
2022-10-21T05:01:43.270Z,19.65
2022-10-21T05:04:30.276Z,17.98
2022-10-21T05:07:27.202Z,18.77
2022-10-21T05:10:14.015Z,20.40
2022-10-21T05:13:05.294Z,20.35
2022-10-21T05:15:53.629Z,20.45
2022-10-21T05:18:38.856Z,21.83
2022-10-21T05:21:28.069Z,21.30
2022-10-21T05:24:16.380Z,22.95
2022-10-21T05:27:01.560Z,21.67
2022-10-21T05:29:47.153Z,21.38
2022-10-21T05:32:32.772Z,21.58
2022-10-21T05:35:33.462Z,22.92
2022-10-21T05:38:21.457Z,19.80
2022-10-21T05:41:07.213Z,20.10
2022-10-21T05:43:52.533Z,20.95
2022-10-21T05:46:38.257Z,19.20
2022-10-21T05:49:23.651Z,20.60
2022-10-21T05:52:09.385Z,19.10
2022-10-21T05:54:54.918Z,19.98
2022-10-21T05:57:40.498Z,18.25
2022-10-21T06:00:25.865Z,19.85
2022-10-21T06:03:11.242Z,18.45
2022-10-21T06:06:05.895Z,17.27
2022-10-21T06:08:51.202Z,19.10
2022-10-21T06:11:36.771Z,16.15
2022-10-21T06:14:22.209Z,16.40
2022-10-21T06:17:07.718Z,14.07
2022-10-21T06:19:53.173Z,14.75
2022-10-21T06:22:38.640Z,12.98
2022-10-21T06:25:24.291Z,12.95
2022-10-21T06:28:09.874Z,12.25
2022-10-21T06:30:55.522Z,11.75
2022-10-21T06:33:41.280Z,11.07
2022-10-21T06:36:26.586Z,9.55
2022-10-21T06:39:13.671Z,11.77
2022-10-21T06:41:59.292Z,10.60
2022-10-21T06:44:44.762Z,9.68
2022-10-21T06:47:30.147Z,10.70
2022-10-21T06:50:15.631Z,9.70
2022-10-21T06:53:01.156Z,11.25
2022-10-21T06:55:46.595Z,10.70
2022-10-21T06:58:32.481Z,10.15
2022-10-21T07:01:34.301Z,10.40
2022-10-21T07:04:26.913Z,10.90
2022-10-21T07:07:12.855Z,11.90
2022-10-21T07:09:58.310Z,10.25
2022-10-21T07:12:44.339Z,10.52
2022-10-21T07:15:29.940Z,10.70
2022-10-21T07:18:15.534Z,10.98
2022-10-21T07:21:15.326Z,10.20
2022-10-21T07:24:01.238Z,11.35
2022-10-21T07:26:47.909Z,9.95
2022-10-21T07:29:33.298Z,9.18
2022-10-21T07:32:18.609Z,10.30
2022-10-21T07:35:04.354Z,8.05
2022-10-21T07:37:49.645Z,9.80
2022-10-21T07:40:40.704Z,9.43
2022-10-21T07:43:25.967Z,8.50
2022-10-21T07:46:11.775Z,9.05
2022-10-21T07:48:57.223Z,8.05
2022-10-21T07:51:43.146Z,8.75
2022-10-21T07:54:28.723Z,7.97
2022-10-21T07:57:14.152Z,7.25
2022-10-21T07:59:59.618Z,7.57
2022-10-21T08:02:45.801Z,7.70
2022-10-21T08:05:31.860Z,7.03
2022-10-21T08:08:17.489Z,7.90
2022-10-21T08:11:04.077Z,6.72
2022-10-21T08:13:49.776Z,5.57
2022-10-21T08:16:35.453Z,6.22
2022-10-21T08:19:24.517Z,5.03
2022-10-21T08:22:10.547Z,5.55
2022-10-21T08:24:55.980Z,4.55
2022-10-21T08:27:41.367Z,3.75
2022-10-21T08:30:31.706Z,4.70
2022-10-21T08:33:21.183Z,4.43
2022-10-21T08:36:08.732Z,4.10
2022-10-21T08:38:54.855Z,4.25
2022-10-21T08:41:57.066Z,3.88
2022-10-21T08:44:52.827Z,3.97
2022-10-21T08:47:51.534Z,3.40
2022-10-21T08:50:42.642Z,3.88
2022-10-21T08:53:35.375Z,3.20
2022-10-21T08:56:31.950Z,3.53
2022-10-21T08:59:23.917Z,3.47
2022-10-21T09:02:12.121Z,2.95
2022-10-21T09:05:28.921Z,3.17
2022-10-21T09:08:29.825Z,3.63
2022-10-21T09:11:20.043Z,4.57
2022-10-21T09:14:26.463Z,3.60
2022-10-21T09:17:43.952Z,3.05
2022-10-21T09:20:56.684Z,4.07
2022-10-21T09:24:08.203Z,3.88
2022-10-21T09:26:55.474Z,3.40
2022-10-21T09:29:45.481Z,3.67
2022-10-21T09:32:35.979Z,3.92
2022-10-21T09:35:27.743Z,3.30
2022-10-21T09:38:20.985Z,3.90
2022-10-21T09:43:53.554Z,3.20
2022-10-21T09:46:39.002Z,3.53
2022-10-21T09:50:02.132Z,3.15
2022-10-21T09:52:49.159Z,3.00
2022-10-21T09:55:35.730Z,3.85
2022-10-21T09:58:26.935Z,3.65
2022-10-21T10:01:21.064Z,3.90
2022-10-21T10:04:21.001Z,3.22
2022-10-21T10:07:26.555Z,3.97
2022-10-21T10:10:34.386Z,2.92
2022-10-21T10:13:24.675Z,3.70
2022-10-21T10:16:31.247Z,3.50
2022-10-21T10:19:23.532Z,3.85
2022-10-21T10:22:14.481Z,2.83
2022-10-21T10:25:11.976Z,3.80
2022-10-21T10:28:17.474Z,2.78
2022-10-21T10:31:03.590Z,3.20
2022-10-21T10:33:58.815Z,2.88
2022-10-21T10:36:44.694Z,3.05
2022-10-21T10:39:34.232Z,2.88
2022-10-21T10:42:23.816Z,2.78
2022-10-21T10:45:20.320Z,2.88
2022-10-21T10:48:07.186Z,2.75
2022-10-21T10:50:52.613Z,4.43
2022-10-21T10:53:38.891Z,3.67
2022-10-21T10:56:33.343Z,4.68
2022-10-21T10:59:44.885Z,2.80
2022-10-21T11:02:41.793Z,3.67
2022-10-21T11:05:36.363Z,3.03
2022-10-21T11:08:33.940Z,4.00
2022-10-21T11:11:44.054Z,2.58
2022-10-21T11:14:29.563Z,3.22
2022-10-21T11:17:19.289Z,3.50
2022-10-21T11:20:34.245Z,2.90
2022-10-21T11:23:56.997Z,3.28
2022-10-21T11:30:05.889Z,3.22
2022-10-21T11:33:04.223Z,2.55
2022-10-21T11:36:21.788Z,3.85
2022-10-21T11:39:39.574Z,3.63
2022-10-21T11:42:43.891Z,3.70
2022-10-21T11:45:41.908Z,4.05
2022-10-21T11:48:48.778Z,3.70
2022-10-21T11:51:52.660Z,3.30
2022-10-21T11:54:50.295Z,4.70
2022-10-21T11:57:56.899Z,2.92
2022-10-21T12:01:17.258Z,3.80
2022-10-21T12:04:21.578Z,4.22
2022-10-21T12:07:33.292Z,3.67
2022-10-21T12:10:30.363Z,3.70
2022-10-21T12:13:24.906Z,3.40
2022-10-21T12:16:17.841Z,4.60
2022-10-21T12:19:06.999Z,3.38
2022-10-21T12:21:52.922Z,4.68
2022-10-21T12:24:55.935Z,4.30
2022-10-21T12:28:14.470Z,5.00
2022-10-21T12:31:03.122Z,3.92
2022-10-21T12:33:49.971Z,5.70
2022-10-21T12:36:49.415Z,3.50
2022-10-21T12:39:34.686Z,4.90
2022-10-21T12:42:27.714Z,3.75
2022-10-21T12:45:31.300Z,4.70
2022-10-21T12:51:25.846Z,3.65
2022-10-21T12:54:18.211Z,4.15
2022-10-21T12:57:07.150Z,5.00
2022-10-21T13:00:16.775Z,4.43
2022-10-21T13:03:11.111Z,4.13
2022-10-21T13:06:02.156Z,3.10
2022-10-21T13:08:54.297Z,4.80
2022-10-21T13:11:41.122Z,4.15
2022-10-21T13:14:35.199Z,4.00
2022-10-21T13:17:21.965Z,4.32
2022-10-21T13:20:16.257Z,3.90
2022-10-21T13:23:31.726Z,5.15
2022-10-21T13:26:26.525Z,4.03
2022-10-21T13:29:15.426Z,3.55
2022-10-21T13:32:14.435Z,3.58
2022-10-21T13:35:25.809Z,5.38
2022-10-21T13:38:31.702Z,4.63
2022-10-21T13:41:23.549Z,5.22
2022-10-21T13:44:29.895Z,3.95
2022-10-21T13:47:20.601Z,5.82
2022-10-21T13:50:20.717Z,5.10
2022-10-21T13:53:17.990Z,4.82
2022-10-21T13:56:08.575Z,5.03
2022-10-21T13:58:53.846Z,4.57
2022-10-21T14:01:54.482Z,4.35
2022-10-21T14:04:40.588Z,5.43
2022-10-21T14:07:26.960Z,4.18
2022-10-21T14:10:15.450Z,3.88
2022-10-21T14:13:01.355Z,5.78
2022-10-21T14:15:49.115Z,4.25
2022-10-21T14:18:42.400Z,4.22
2022-10-21T14:24:34.084Z,3.35
2022-10-21T14:27:25.414Z,4.57
2022-10-21T14:30:20.067Z,4.60
2022-10-21T14:33:08.570Z,5.35
2022-10-21T14:36:08.933Z,4.82
2022-10-21T14:39:06.567Z,4.25
2022-10-21T14:41:52.197Z,4.30
2022-10-21T14:44:39.325Z,5.72
2022-10-21T14:47:27.223Z,4.63
2022-10-21T14:50:19.508Z,5.50
2022-10-21T14:53:17.159Z,4.25
2022-10-21T14:56:05.970Z,3.72
2022-10-21T14:58:55.115Z,4.45
2022-10-21T15:01:42.970Z,4.53
2022-10-21T15:04:55.838Z,4.03
2022-10-21T15:07:41.107Z,3.88
2022-10-21T15:10:27.899Z,4.05
2022-10-21T15:13:19.135Z,4.43
2022-10-21T15:16:18.427Z,4.32
2022-10-21T15:19:09.941Z,4.18
2022-10-21T15:22:03.913Z,5.20
2022-10-21T15:24:50.476Z,5.75
2022-10-21T15:27:42.727Z,4.68
2022-10-21T15:30:35.134Z,4.57
2022-10-21T15:33:20.557Z,3.88
2022-10-21T15:36:13.372Z,4.03
2022-10-21T15:38:58.541Z,3.83
2022-10-21T15:41:45.284Z,3.70
2022-10-21T15:44:33.428Z,4.07
2022-10-21T15:47:18.877Z,4.22
2022-10-21T15:50:16.674Z,3.47
2022-10-21T15:53:02.413Z,4.25
2022-10-21T15:55:48.233Z,3.72
2022-10-21T15:58:33.589Z,5.15
2022-10-21T16:01:19.147Z,4.85
2022-10-21T16:04:05.446Z,3.33
2022-10-21T16:06:52.324Z,4.30
2022-10-21T16:09:37.618Z,4.22
2022-10-21T16:12:23.985Z,3.45
2022-10-21T16:15:09.638Z,4.03
2022-10-21T16:17:57.388Z,4.38
2022-10-21T16:20:43.703Z,3.28
2022-10-21T16:23:30.387Z,4.03
2022-10-21T16:26:21.684Z,4.22
2022-10-21T16:29:07.050Z,4.43
2022-10-21T16:31:52.922Z,4.45
2022-10-21T16:34:41.478Z,3.42
2022-10-21T16:37:28.025Z,3.45
2022-10-21T16:40:28.509Z,3.60
2022-10-21T16:43:16.174Z,4.13
2022-10-21T16:46:01.582Z,3.72
2022-10-21T16:48:46.996Z,4.35
2022-10-21T16:51:32.529Z,4.65
2022-10-21T16:54:17.889Z,3.72
2022-10-21T16:57:07.095Z,3.33
2022-10-21T16:59:52.898Z,5.70
2022-10-21T17:02:40.462Z,4.70
2022-10-21T17:05:26.572Z,4.22
2022-10-21T17:08:12.214Z,4.40
2022-10-21T17:10:57.889Z,4.13
2022-10-21T17:13:44.316Z,4.18
2022-10-21T17:16:30.075Z,4.40
2022-10-21T17:19:16.002Z,4.75
2022-10-21T17:22:01.154Z,3.67
2022-10-21T17:24:48.370Z,4.45
2022-10-21T17:27:33.911Z,4.13
2022-10-21T17:30:19.803Z,5.35
2022-10-21T17:33:05.338Z,5.35
2022-10-21T17:35:50.807Z,7.63
2022-10-21T17:38:36.388Z,3.97
2022-10-21T17:41:21.820Z,4.38
2022-10-21T17:44:08.361Z,6.03
2022-10-21T17:46:54.992Z,4.05
2022-10-21T17:49:41.737Z,4.63
2022-10-21T17:52:27.824Z,5.80
2022-10-21T17:55:13.295Z,3.35
2022-10-21T17:57:58.803Z,3.05
2022-10-21T18:00:44.963Z,5.00
2022-10-21T18:03:32.150Z,4.22
2022-10-21T18:06:17.737Z,3.30
2022-10-21T18:09:05.337Z,4.00
2022-10-21T18:11:50.723Z,3.95
2022-10-21T18:14:36.826Z,6.32
2022-10-21T18:17:22.429Z,3.33
2022-10-21T18:20:08.329Z,5.13
2022-10-21T18:22:53.642Z,3.42
2022-10-21T18:25:40.179Z,4.35
2022-10-21T18:28:25.886Z,3.30
2022-10-21T18:31:12.624Z,3.90
2022-10-21T18:33:59.329Z,4.32
2022-10-21T18:36:44.587Z,5.85
2022-10-21T18:39:30.052Z,4.00
2022-10-21T18:42:15.631Z,3.60
2022-10-21T18:45:01.273Z,3.80
2022-10-21T18:47:47.539Z,5.15
2022-10-21T18:50:32.844Z,5.07
2022-10-21T18:53:18.091Z,5.05
2022-10-21T18:56:08.908Z,5.30
2022-10-21T18:58:56.371Z,4.18
2022-10-21T19:01:41.709Z,3.92
2022-10-21T19:04:27.092Z,4.25
2022-10-21T19:07:12.511Z,3.85
2022-10-21T19:09:58.175Z,3.10
2022-10-21T19:12:43.939Z,3.75
2022-10-21T19:15:29.273Z,3.30
2022-10-21T19:18:14.756Z,3.10
2022-10-21T19:21:00.261Z,3.83
2022-10-21T19:23:50.971Z,2.92
2022-10-21T19:26:38.883Z,3.08
2022-10-21T19:29:25.880Z,3.10
2022-10-21T19:32:13.514Z,5.07
2022-10-21T19:34:58.941Z,6.50
2022-10-21T19:37:44.089Z,4.00
2022-10-21T19:40:29.514Z,3.83
2022-10-21T19:43:14.663Z,2.95
2022-10-21T19:46:07.377Z,3.60
2022-10-21T19:48:53.018Z,3.38
2022-10-21T19:51:38.531Z,2.95
2022-10-21T19:54:24.196Z,4.10
2022-10-21T19:57:09.534Z,3.75
2022-10-21T19:59:55.059Z,3.03
2022-10-21T20:02:43.495Z,4.32
2022-10-21T20:05:31.635Z,3.13
2022-10-21T20:08:17.282Z,4.20
2022-10-21T20:11:05.553Z,3.80
2022-10-21T20:13:51.575Z,2.97
2022-10-21T20:16:39.381Z,3.28
2022-10-21T20:19:25.131Z,3.08
2022-10-21T20:22:10.831Z,3.63
2022-10-21T20:24:56.440Z,2.90
2022-10-21T20:27:42.023Z,2.80
2022-10-21T20:30:27.849Z,4.40
2022-10-21T20:33:13.307Z,3.13
2022-10-21T20:36:03.513Z,4.00
2022-10-21T20:38:51.034Z,3.10
2022-10-21T20:41:37.922Z,3.10
2022-10-21T20:44:23.273Z,3.70
2022-10-21T20:47:08.676Z,3.33
2022-10-21T20:49:54.094Z,3.30
2022-10-21T20:52:39.499Z,3.15
2022-10-21T20:55:25.123Z,3.08
2022-10-21T20:58:10.521Z,4.07
2022-10-21T21:00:56.490Z,2.65
2022-10-21T21:03:42.928Z,2.97
2022-10-21T21:06:29.075Z,2.85
2022-10-21T21:12:21.816Z,3.00
2022-10-21T21:15:07.830Z,3.08
2022-10-21T21:17:53.106Z,3.22
2022-10-21T21:20:38.641Z,3.03
2022-10-21T21:23:24.144Z,4.10
2022-10-21T21:26:13.442Z,3.40
2022-10-21T21:28:58.927Z,3.67
2022-10-21T21:31:44.347Z,3.08
2022-10-21T21:34:29.774Z,2.90
2022-10-21T21:37:15.298Z,2.88
2022-10-21T21:40:01.106Z,3.45
2022-10-21T21:42:46.792Z,3.78
2022-10-21T21:45:32.277Z,3.40
2022-10-21T21:48:18.490Z,2.83
2022-10-21T21:51:09.695Z,3.40
2022-10-21T21:53:56.485Z,4.30
2022-10-21T21:56:41.607Z,4.28
2022-10-21T21:59:27.263Z,4.03
2022-10-21T22:02:12.785Z,4.63
2022-10-21T22:04:58.260Z,3.95
2022-10-21T22:07:43.742Z,3.80
2022-10-21T22:10:29.678Z,2.85
2022-10-21T22:13:15.250Z,4.45
2022-10-21T22:16:00.861Z,3.80
2022-10-21T22:18:46.449Z,4.00
2022-10-21T22:21:32.428Z,3.38
2022-10-21T22:24:17.907Z,3.47
2022-10-21T22:27:03.538Z,4.03
2022-10-21T22:29:48.864Z,2.92
2022-10-21T22:32:34.642Z,3.53
2022-10-21T22:35:19.951Z,3.30
2022-10-21T22:38:05.860Z,3.83
2022-10-21T22:40:55.609Z,4.15
2022-10-21T22:43:42.929Z,3.75
2022-10-21T22:46:34.007Z,3.80
2022-10-21T22:49:20.464Z,4.80
2022-10-21T22:52:05.865Z,4.10
2022-10-21T22:54:51.284Z,3.40
2022-10-21T22:57:36.801Z,3.55
2022-10-21T23:00:23.243Z,3.60
2022-10-21T23:03:09.729Z,3.75
2022-10-21T23:05:55.330Z,5.70
2022-10-21T23:08:40.908Z,5.50
2022-10-21T23:11:26.963Z,3.15
2022-10-21T23:14:12.998Z,3.05
2022-10-21T23:16:58.320Z,3.17
2022-10-21T23:19:44.223Z,4.35
2022-10-21T23:22:29.755Z,2.88
2022-10-21T23:25:15.373Z,3.13
2022-10-21T23:28:01.093Z,3.47
2022-10-21T23:30:47.951Z,3.70
2022-10-21T23:33:33.366Z,3.05
2022-10-21T23:36:19.004Z,2.13
2022-10-21T23:39:26.807Z,2.22
2022-10-21T23:42:15.273Z,2.63
2022-10-21T23:45:00.753Z,2.17
2022-10-21T23:47:46.126Z,2.05
2022-10-21T23:50:31.707Z,2.03
2022-10-21T23:53:17.371Z,1.73
2022-10-21T23:56:03.661Z,2.28
2022-10-21T23:58:49.155Z,2.08
